sensor_id;sensor_type;location;lat;lon;timestamp;pressure;altitude;pressure_sealevel;temperature;humidity
49915;BME280;35806;47.958;13.158;2023-02-22T00:00:44;94654.78;;;4.40;50.97
49915;BME280;35806;47.958;13.158;2023-02-22T00:03:14;94653.43;;;4.77;50.47
49915;BME280;35806;47.958;13.158;2023-02-22T00:05:42;94654.21;;;4.42;51.21
49915;BME280;35806;47.958;13.158;2023-02-22T00:08:09;94656.00;;;4.85;50.16
49915;BME280;35806;47.958;13.158;2023-02-22T00:10:37;94655.78;;;5.26;49.86
49915;BME280;35806;47.958;13.158;2023-02-22T00:13:07;94655.34;;;4.05;51.86
49915;BME280;35806;47.958;13.158;2023-02-22T00:15:36;94657.67;;;4.43;51.65
49915;BME280;35806;47.958;13.158;2023-02-22T00:18:03;94660.50;;;5.16;50.53
49915;BME280;35806;47.958;13.158;2023-02-22T00:20:30;94660.77;;;3.91;52.21
49915;BME280;35806;47.958;13.158;2023-02-22T00:22:58;94659.82;;;3.69;53.81
49915;BME280;35806;47.958;13.158;2023-02-22T00:25:25;94656.56;;;3.83;54.22
49915;BME280;35806;47.958;13.158;2023-02-22T00:27:53;94654.82;;;4.41;53.88
49915;BME280;35806;47.958;13.158;2023-02-22T00:30:22;94653.11;;;4.60;53.63
49915;BME280;35806;47.958;13.158;2023-02-22T00:32:49;94651.41;;;4.30;52.89
49915;BME280;35806;47.958;13.158;2023-02-22T00:35:19;94650.77;;;4.60;55.61
49915;BME280;35806;47.958;13.158;2023-02-22T00:37:48;94649.37;;;4.88;55.10
49915;BME280;35806;47.958;13.158;2023-02-22T00:40:17;94647.07;;;5.19;55.16
49915;BME280;35806;47.958;13.158;2023-02-22T00:42:45;94646.43;;;5.49;54.93
49915;BME280;35806;47.958;13.158;2023-02-22T00:45:14;94642.97;;;4.87;55.73
49915;BME280;35806;47.958;13.158;2023-02-22T00:47:42;94643.79;;;5.31;55.63
49915;BME280;35806;47.958;13.158;2023-02-22T00:50:10;94645.62;;;5.75;54.41
49915;BME280;35806;47.958;13.158;2023-02-22T00:52:38;94645.36;;;5.89;53.89
49915;BME280;35806;47.958;13.158;2023-02-22T00:55:08;94642.55;;;6.04;53.16
49915;BME280;35806;47.958;13.158;2023-02-22T00:57:36;94642.27;;;6.20;53.05
49915;BME280;35806;47.958;13.158;2023-02-22T01:00:06;94642.67;;;6.28;52.29
49915;BME280;35806;47.958;13.158;2023-02-22T01:02:33;94642.86;;;6.20;52.16
49915;BME280;35806;47.958;13.158;2023-02-22T01:05:01;94638.15;;;6.59;51.32
49915;BME280;35806;47.958;13.158;2023-02-22T01:07:28;94643.22;;;6.20;52.31
49915;BME280;35806;47.958;13.158;2023-02-22T01:09:56;94636.77;;;6.44;52.19
49915;BME280;35806;47.958;13.158;2023-02-22T01:12:24;94637.85;;;5.97;53.10
49915;BME280;35806;47.958;13.158;2023-02-22T01:14:51;94636.01;;;6.22;52.60
49915;BME280;35806;47.958;13.158;2023-02-22T01:17:19;94633.46;;;6.14;52.64
49915;BME280;35806;47.958;13.158;2023-02-22T01:19:46;94627.03;;;5.96;52.77
49915;BME280;35806;47.958;13.158;2023-02-22T01:22:13;94624.64;;;5.60;54.29
49915;BME280;35806;47.958;13.158;2023-02-22T01:24:46;94618.52;;;6.35;54.06
49915;BME280;35806;47.958;13.158;2023-02-22T01:27:16;94619.87;;;6.17;53.71
49915;BME280;35806;47.958;13.158;2023-02-22T01:29:44;94617.00;;;6.31;53.89
49915;BME280;35806;47.958;13.158;2023-02-22T01:32:11;94614.92;;;6.16;53.26
49915;BME280;35806;47.958;13.158;2023-02-22T01:34:38;94614.27;;;6.44;53.36
49915;BME280;35806;47.958;13.158;2023-02-22T01:37:06;94610.11;;;6.44;53.57
49915;BME280;35806;47.958;13.158;2023-02-22T01:39:34;94608.26;;;6.49;53.28
49915;BME280;35806;47.958;13.158;2023-02-22T01:42:02;94607.70;;;6.41;53.02
49915;BME280;35806;47.958;13.158;2023-02-22T01:44:36;94604.60;;;6.22;52.48
49915;BME280;35806;47.958;13.158;2023-02-22T01:47:05;94604.91;;;6.18;52.08
49915;BME280;35806;47.958;13.158;2023-02-22T01:49:34;94603.11;;;6.19;52.44
49915;BME280;35806;47.958;13.158;2023-02-22T01:52:05;94601.91;;;6.31;52.22
49915;BME280;35806;47.958;13.158;2023-02-22T01:54:38;94603.16;;;5.83;52.71
49915;BME280;35806;47.958;13.158;2023-02-22T01:57:13;94601.34;;;5.76;52.60
49915;BME280;35806;47.958;13.158;2023-02-22T01:59:45;94598.77;;;5.40;53.16
49915;BME280;35806;47.958;13.158;2023-02-22T02:15:38;94586.02;;;5.17;53.18
49915;BME280;35806;47.958;13.158;2023-02-22T02:18:09;94581.43;;;5.03;53.19
49915;BME280;35806;47.958;13.158;2023-02-22T02:20:42;94578.45;;;5.54;53.96
49915;BME280;35806;47.958;13.158;2023-02-22T02:23:28;94577.11;;;5.65;53.89
49915;BME280;35806;47.958;13.158;2023-02-22T02:26:28;94574.66;;;5.01;54.96
49915;BME280;35806;47.958;13.158;2023-02-22T02:29:26;94573.33;;;5.05;54.48
49915;BME280;35806;47.958;13.158;2023-02-22T02:32:18;94572.06;;;4.75;54.33
49915;BME280;35806;47.958;13.158;2023-02-22T02:34:52;94571.07;;;4.33;54.66
49915;BME280;35806;47.958;13.158;2023-02-22T02:37:29;94572.28;;;4.74;54.53
49915;BME280;35806;47.958;13.158;2023-02-22T02:40:04;94569.34;;;4.96;53.82
49915;BME280;35806;47.958;13.158;2023-02-22T02:42:42;94564.21;;;4.45;55.25
49915;BME280;35806;47.958;13.158;2023-02-22T02:45:14;94561.84;;;4.29;55.26
49915;BME280;35806;47.958;13.158;2023-02-22T02:47:47;94560.44;;;4.49;55.06
49915;BME280;35806;47.958;13.158;2023-02-22T02:50:20;94556.98;;;4.43;54.34
49915;BME280;35806;47.958;13.158;2023-02-22T02:52:51;94550.50;;;4.62;54.60
49915;BME280;35806;47.958;13.158;2023-02-22T02:55:19;94550.11;;;4.43;54.24
49915;BME280;35806;47.958;13.158;2023-02-22T02:57:46;94545.02;;;4.03;54.73
49915;BME280;35806;47.958;13.158;2023-02-22T03:00:19;94542.62;;;4.28;54.87
49915;BME280;35806;47.958;13.158;2023-02-22T03:03:01;94541.51;;;3.90;54.58
49915;BME280;35806;47.958;13.158;2023-02-22T03:05:44;94542.21;;;4.00;55.42
49915;BME280;35806;47.958;13.158;2023-02-22T03:08:20;94537.91;;;3.95;55.94
49915;BME280;35806;47.958;13.158;2023-02-22T03:10:57;94534.55;;;3.91;55.77
49915;BME280;35806;47.958;13.158;2023-02-22T03:13:39;94533.76;;;3.81;55.84
49915;BME280;35806;47.958;13.158;2023-02-22T03:16:16;94536.24;;;3.61;55.79
49915;BME280;35806;47.958;13.158;2023-02-22T03:18:49;94534.64;;;3.77;55.35
49915;BME280;35806;47.958;13.158;2023-02-22T03:21:25;94531.98;;;3.87;55.72
49915;BME280;35806;47.958;13.158;2023-02-22T03:24:04;94528.39;;;4.06;55.66
49915;BME280;35806;47.958;13.158;2023-02-22T03:26:35;94525.73;;;3.77;55.99
49915;BME280;35806;47.958;13.158;2023-02-22T03:29:05;94522.66;;;3.89;56.35
49915;BME280;35806;47.958;13.158;2023-02-22T03:31:38;94521.27;;;4.39;55.20
49915;BME280;35806;47.958;13.158;2023-02-22T03:34:10;94521.54;;;4.11;55.67
49915;BME280;35806;47.958;13.158;2023-02-22T03:36:44;94522.60;;;3.80;56.07
49915;BME280;35806;47.958;13.158;2023-02-22T03:39:14;94520.55;;;3.48;56.50
49915;BME280;35806;47.958;13.158;2023-02-22T03:41:47;94520.53;;;4.03;56.52
49915;BME280;35806;47.958;13.158;2023-02-22T03:44:18;94518.97;;;3.57;56.98
49915;BME280;35806;47.958;13.158;2023-02-22T03:46:50;94517.30;;;4.25;56.86
49915;BME280;35806;47.958;13.158;2023-02-22T03:49:26;94518.60;;;4.14;57.07
49915;BME280;35806;47.958;13.158;2023-02-22T03:51:57;94519.78;;;4.45;56.90
49915;BME280;35806;47.958;13.158;2023-02-22T03:54:26;94518.66;;;4.31;56.77
49915;BME280;35806;47.958;13.158;2023-02-22T03:56:55;94516.71;;;4.84;56.43
49915;BME280;35806;47.958;13.158;2023-02-22T03:59:24;94516.47;;;4.48;56.90
49915;BME280;35806;47.958;13.158;2023-02-22T04:01:53;94512.00;;;4.56;56.65
49915;BME280;35806;47.958;13.158;2023-02-22T04:04:22;94509.74;;;4.72;56.81
49915;BME280;35806;47.958;13.158;2023-02-22T04:06:50;94507.87;;;4.67;56.84
49915;BME280;35806;47.958;13.158;2023-02-22T04:09:17;94504.81;;;4.42;57.59
49915;BME280;35806;47.958;13.158;2023-02-22T04:11:44;94502.86;;;4.75;56.85
49915;BME280;35806;47.958;13.158;2023-02-22T04:14:11;94499.49;;;4.84;56.88
49915;BME280;35806;47.958;13.158;2023-02-22T04:16:39;94496.97;;;4.77;57.04
49915;BME280;35806;47.958;13.158;2023-02-22T04:19:07;94498.57;;;4.93;56.80
49915;BME280;35806;47.958;13.158;2023-02-22T04:21:34;94496.39;;;4.65;57.34
49915;BME280;35806;47.958;13.158;2023-02-22T04:24:02;94494.88;;;5.06;57.21
49915;BME280;35806;47.958;13.158;2023-02-22T04:26:29;94489.58;;;5.23;57.99
49915;BME280;35806;47.958;13.158;2023-02-22T04:28:56;94487.11;;;5.51;57.88
49915;BME280;35806;47.958;13.158;2023-02-22T04:31:23;94483.13;;;5.49;58.44
49915;BME280;35806;47.958;13.158;2023-02-22T04:33:51;94479.95;;;5.70;58.67
49915;BME280;35806;47.958;13.158;2023-02-22T04:36:18;94481.91;;;5.30;58.72
49915;BME280;35806;47.958;13.158;2023-02-22T04:38:45;94480.63;;;5.75;59.09
49915;BME280;35806;47.958;13.158;2023-02-22T04:41:13;94478.32;;;5.28;59.20
49915;BME280;35806;47.958;13.158;2023-02-22T04:43:40;94471.72;;;6.02;58.02
49915;BME280;35806;47.958;13.158;2023-02-22T04:46:13;94468.73;;;5.93;57.96
49915;BME280;35806;47.958;13.158;2023-02-22T04:48:40;94463.55;;;5.94;58.07
49915;BME280;35806;47.958;13.158;2023-02-22T04:51:07;94466.22;;;6.04;57.83
49915;BME280;35806;47.958;13.158;2023-02-22T04:53:35;94467.57;;;6.26;57.16
49915;BME280;35806;47.958;13.158;2023-02-22T04:56:02;94466.80;;;6.41;56.61
49915;BME280;35806;47.958;13.158;2023-02-22T04:58:30;94466.21;;;6.45;56.58
49915;BME280;35806;47.958;13.158;2023-02-22T05:00:57;94469.42;;;6.16;56.86
49915;BME280;35806;47.958;13.158;2023-02-22T05:03:24;94466.66;;;6.43;56.56
49915;BME280;35806;47.958;13.158;2023-02-22T05:05:51;94464.87;;;6.34;56.44
49915;BME280;35806;47.958;13.158;2023-02-22T05:08:19;94462.25;;;6.40;56.27
49915;BME280;35806;47.958;13.158;2023-02-22T05:10:47;94463.94;;;6.52;55.39
49915;BME280;35806;47.958;13.158;2023-02-22T05:13:14;94464.62;;;6.33;55.56
49915;BME280;35806;47.958;13.158;2023-02-22T05:15:42;94463.09;;;6.53;55.61
49915;BME280;35806;47.958;13.158;2023-02-22T05:18:09;94459.84;;;6.82;54.89
49915;BME280;35806;47.958;13.158;2023-02-22T05:20:37;94462.61;;;6.17;55.43
49915;BME280;35806;47.958;13.158;2023-02-22T05:23:04;94462.10;;;6.40;55.69
49915;BME280;35806;47.958;13.158;2023-02-22T05:25:32;94461.62;;;6.78;55.37
49915;BME280;35806;47.958;13.158;2023-02-22T05:28:01;94463.23;;;6.59;54.87
49915;BME280;35806;47.958;13.158;2023-02-22T05:30:30;94460.09;;;6.35;54.84
49915;BME280;35806;47.958;13.158;2023-02-22T05:32:59;94460.11;;;6.35;55.59
49915;BME280;35806;47.958;13.158;2023-02-22T05:35:28;94459.49;;;6.44;55.02
49915;BME280;35806;47.958;13.158;2023-02-22T05:37:56;94458.17;;;6.28;55.16
49915;BME280;35806;47.958;13.158;2023-02-22T05:40:25;94459.93;;;6.71;54.75
49915;BME280;35806;47.958;13.158;2023-02-22T05:42:53;94461.34;;;6.24;55.32
49915;BME280;35806;47.958;13.158;2023-02-22T05:45:24;94460.20;;;6.26;55.90
49915;BME280;35806;47.958;13.158;2023-02-22T05:47:53;94459.20;;;6.51;55.68
49915;BME280;35806;47.958;13.158;2023-02-22T05:50:20;94459.47;;;6.29;55.44
49915;BME280;35806;47.958;13.158;2023-02-22T05:52:48;94459.37;;;6.43;54.81
49915;BME280;35806;47.958;13.158;2023-02-22T05:55:20;94461.17;;;6.37;54.80
49915;BME280;35806;47.958;13.158;2023-02-22T05:57:48;94456.04;;;6.42;54.20
49915;BME280;35806;47.958;13.158;2023-02-22T06:00:18;94461.02;;;5.94;55.22
49915;BME280;35806;47.958;13.158;2023-02-22T06:02:46;94456.87;;;6.04;55.76
49915;BME280;35806;47.958;13.158;2023-02-22T06:05:13;94454.67;;;6.57;55.29
49915;BME280;35806;47.958;13.158;2023-02-22T06:07:41;94456.04;;;6.14;55.79
49915;BME280;35806;47.958;13.158;2023-02-22T06:10:09;94458.51;;;6.70;54.87
49915;BME280;35806;47.958;13.158;2023-02-22T06:12:36;94459.90;;;6.38;56.04
49915;BME280;35806;47.958;13.158;2023-02-22T06:15:05;94466.00;;;6.14;55.92
49915;BME280;35806;47.958;13.158;2023-02-22T06:17:32;94470.16;;;6.28;55.35
49915;BME280;35806;47.958;13.158;2023-02-22T06:19:59;94470.37;;;6.32;55.20
49915;BME280;35806;47.958;13.158;2023-02-22T06:22:27;94468.78;;;6.39;54.94
49915;BME280;35806;47.958;13.158;2023-02-22T06:24:54;94474.59;;;6.65;54.63
49915;BME280;35806;47.958;13.158;2023-02-22T06:27:22;94475.59;;;6.41;54.77
49915;BME280;35806;47.958;13.158;2023-02-22T06:29:48;94476.28;;;6.63;54.68
49915;BME280;35806;47.958;13.158;2023-02-22T06:32:15;94479.24;;;6.58;54.07
49915;BME280;35806;47.958;13.158;2023-02-22T06:34:43;94480.19;;;6.39;54.25
49915;BME280;35806;47.958;13.158;2023-02-22T06:37:10;94483.26;;;6.26;54.13
49915;BME280;35806;47.958;13.158;2023-02-22T06:39:37;94484.27;;;6.08;54.28
49915;BME280;35806;47.958;13.158;2023-02-22T06:42:04;94486.64;;;6.28;53.92
49915;BME280;35806;47.958;13.158;2023-02-22T06:44:32;94488.28;;;6.10;54.55
49915;BME280;35806;47.958;13.158;2023-02-22T06:46:59;94488.87;;;6.25;54.11
49915;BME280;35806;47.958;13.158;2023-02-22T06:49:27;94491.23;;;6.67;53.43
49915;BME280;35806;47.958;13.158;2023-02-22T06:51:54;94490.07;;;6.56;53.57
49915;BME280;35806;47.958;13.158;2023-02-22T06:54:22;94486.89;;;6.84;53.07
49915;BME280;35806;47.958;13.158;2023-02-22T06:56:49;94484.79;;;6.99;52.64
49915;BME280;35806;47.958;13.158;2023-02-22T06:59:17;94483.51;;;6.94;53.15
49915;BME280;35806;47.958;13.158;2023-02-22T07:01:44;94481.75;;;7.11;52.93
49915;BME280;35806;47.958;13.158;2023-02-22T07:04:12;94482.50;;;6.87;53.27
49915;BME280;35806;47.958;13.158;2023-02-22T07:06:39;94484.96;;;7.16;53.11
49915;BME280;35806;47.958;13.158;2023-02-22T07:09:10;94481.99;;;6.95;53.68
49915;BME280;35806;47.958;13.158;2023-02-22T07:11:38;94487.55;;;7.20;53.08
49915;BME280;35806;47.958;13.158;2023-02-22T07:14:05;94484.65;;;7.73;51.94
49915;BME280;35806;47.958;13.158;2023-02-22T07:16:33;94486.15;;;7.43;52.22
49915;BME280;35806;47.958;13.158;2023-02-22T07:19:00;94486.16;;;8.20;51.29
49915;BME280;35806;47.958;13.158;2023-02-22T07:21:28;94488.92;;;8.08;51.05
49915;BME280;35806;47.958;13.158;2023-02-22T07:23:56;94485.89;;;8.18;50.67
49915;BME280;35806;47.958;13.158;2023-02-22T07:26:24;94487.41;;;8.06;50.55
49915;BME280;35806;47.958;13.158;2023-02-22T07:28:52;94485.64;;;8.29;50.45
49915;BME280;35806;47.958;13.158;2023-02-22T07:31:19;94486.47;;;8.39;50.02
49915;BME280;35806;47.958;13.158;2023-02-22T07:33:48;94490.85;;;8.52;49.33
49915;BME280;35806;47.958;13.158;2023-02-22T07:36:16;94489.79;;;8.44;49.40
49915;BME280;35806;47.958;13.158;2023-02-22T07:38:43;94487.03;;;8.84;48.98
49915;BME280;35806;47.958;13.158;2023-02-22T07:41:10;94488.57;;;8.69;49.10
49915;BME280;35806;47.958;13.158;2023-02-22T07:43:37;94486.40;;;8.87;48.90
49915;BME280;35806;47.958;13.158;2023-02-22T07:46:04;94486.70;;;9.18;48.88
49915;BME280;35806;47.958;13.158;2023-02-22T07:48:32;94483.62;;;9.08;48.15
49915;BME280;35806;47.958;13.158;2023-02-22T07:50:59;94484.96;;;8.23;48.56
49915;BME280;35806;47.958;13.158;2023-02-22T07:53:29;94487.29;;;8.05;49.15
49915;BME280;35806;47.958;13.158;2023-02-22T07:55:57;94490.80;;;8.07;48.81
49915;BME280;35806;47.958;13.158;2023-02-22T07:58:27;94488.33;;;8.20;48.09
49915;BME280;35806;47.958;13.158;2023-02-22T08:00:55;94488.94;;;7.32;49.68
49915;BME280;35806;47.958;13.158;2023-02-22T08:03:24;94485.52;;;7.35;49.24
49915;BME280;35806;47.958;13.158;2023-02-22T08:05:54;94481.92;;;7.63;49.39
49915;BME280;35806;47.958;13.158;2023-02-22T08:08:23;94478.81;;;7.36;50.33
49915;BME280;35806;47.958;13.158;2023-02-22T08:10:50;94478.59;;;7.78;49.78
49915;BME280;35806;47.958;13.158;2023-02-22T08:13:18;94476.92;;;7.53;50.06
49915;BME280;35806;47.958;13.158;2023-02-22T08:15:46;94473.45;;;7.69;50.00
49915;BME280;35806;47.958;13.158;2023-02-22T08:18:16;94472.31;;;7.89;50.66
49915;BME280;35806;47.958;13.158;2023-02-22T08:20:46;94472.19;;;8.23;50.18
49915;BME280;35806;47.958;13.158;2023-02-22T08:23:15;94474.14;;;8.42;50.10
49915;BME280;35806;47.958;13.158;2023-02-22T08:25:43;94477.28;;;8.82;49.85
49915;BME280;35806;47.958;13.158;2023-02-22T08:28:12;94475.86;;;8.60;49.14
49915;BME280;35806;47.958;13.158;2023-02-22T08:30:41;94474.56;;;8.98;50.18
49915;BME280;35806;47.958;13.158;2023-02-22T08:33:10;94472.96;;;8.69;50.73
49915;BME280;35806;47.958;13.158;2023-02-22T08:35:37;94470.16;;;8.98;49.69
49915;BME280;35806;47.958;13.158;2023-02-22T08:38:06;94469.70;;;9.01;49.75
49915;BME280;35806;47.958;13.158;2023-02-22T08:40:35;94470.03;;;9.17;49.14
49915;BME280;35806;47.958;13.158;2023-02-22T08:43:03;94467.59;;;9.22;48.52
49915;BME280;35806;47.958;13.158;2023-02-22T08:45:30;94465.32;;;9.20;48.89
49915;BME280;35806;47.958;13.158;2023-02-22T08:47:58;94463.02;;;8.98;49.41
49915;BME280;35806;47.958;13.158;2023-02-22T08:50:27;94459.88;;;9.22;49.09
49915;BME280;35806;47.958;13.158;2023-02-22T08:52:56;94456.85;;;8.86;49.61
49915;BME280;35806;47.958;13.158;2023-02-22T08:55:31;94453.56;;;9.25;48.58
49915;BME280;35806;47.958;13.158;2023-02-22T08:57:59;94453.08;;;9.32;48.94
49915;BME280;35806;47.958;13.158;2023-02-22T09:00:28;94451.19;;;9.69;49.24
49915;BME280;35806;47.958;13.158;2023-02-22T09:02:56;94449.76;;;9.76;48.75
49915;BME280;35806;47.958;13.158;2023-02-22T09:05:23;94446.41;;;9.88;48.43
49915;BME280;35806;47.958;13.158;2023-02-22T09:07:50;94444.85;;;9.97;48.41
49915;BME280;35806;47.958;13.158;2023-02-22T09:10:20;94445.27;;;10.25;47.86
49915;BME280;35806;47.958;13.158;2023-02-22T09:12:47;94440.29;;;10.48;47.87
49915;BME280;35806;47.958;13.158;2023-02-22T09:15:15;94441.68;;;9.96;48.04
49915;BME280;35806;47.958;13.158;2023-02-22T09:17:43;94437.86;;;10.15;47.32
49915;BME280;35806;47.958;13.158;2023-02-22T09:20:11;94435.28;;;10.25;47.32
49915;BME280;35806;47.958;13.158;2023-02-22T09:22:38;94432.37;;;10.28;47.67
49915;BME280;35806;47.958;13.158;2023-02-22T09:25:06;94427.79;;;10.79;46.66
49915;BME280;35806;47.958;13.158;2023-02-22T09:27:34;94427.91;;;11.12;46.38
49915;BME280;35806;47.958;13.158;2023-02-22T09:30:02;94427.20;;;11.27;46.24
49915;BME280;35806;47.958;13.158;2023-02-22T09:32:35;94427.29;;;11.26;44.29
49915;BME280;35806;47.958;13.158;2023-02-22T09:35:03;94424.82;;;11.35;44.36
49915;BME280;35806;47.958;13.158;2023-02-22T09:37:30;94423.08;;;11.47;45.14
49915;BME280;35806;47.958;13.158;2023-02-22T09:39:57;94421.06;;;11.38;44.51
49915;BME280;35806;47.958;13.158;2023-02-22T09:42:28;94416.87;;;11.50;44.31
49915;BME280;35806;47.958;13.158;2023-02-22T09:45:02;94417.75;;;11.77;44.81
49915;BME280;35806;47.958;13.158;2023-02-22T09:47:38;94413.88;;;12.17;43.99
49915;BME280;35806;47.958;13.158;2023-02-22T09:50:15;94410.86;;;12.41;41.97
49915;BME280;35806;47.958;13.158;2023-02-22T09:52:52;94408.27;;;13.29;41.02
49915;BME280;35806;47.958;13.158;2023-02-22T09:55:29;94404.92;;;13.19;40.30
49915;BME280;35806;47.958;13.158;2023-02-22T09:58:00;94402.43;;;13.56;40.02
49915;BME280;35806;47.958;13.158;2023-02-22T10:00:30;94396.76;;;13.73;39.42
49915;BME280;35806;47.958;13.158;2023-02-22T10:03:07;94396.44;;;13.75;39.88
49915;BME280;35806;47.958;13.158;2023-02-22T10:05:41;94396.67;;;14.18;39.54
49915;BME280;35806;47.958;13.158;2023-02-22T10:08:12;94392.91;;;14.42;38.40
49915;BME280;35806;47.958;13.158;2023-02-22T10:10:41;94389.81;;;14.27;38.90
49915;BME280;35806;47.958;13.158;2023-02-22T10:13:20;94389.96;;;14.32;38.07
49915;BME280;35806;47.958;13.158;2023-02-22T10:15:55;94391.34;;;13.92;39.01
49915;BME280;35806;47.958;13.158;2023-02-22T10:19:06;94389.38;;;14.54;37.97
49915;BME280;35806;47.958;13.158;2023-02-22T10:21:52;94385.66;;;15.19;37.09
49915;BME280;35806;47.958;13.158;2023-02-22T10:24:33;94385.65;;;14.15;38.14
49915;BME280;35806;47.958;13.158;2023-02-22T10:27:04;94383.76;;;14.67;38.19
49915;BME280;35806;47.958;13.158;2023-02-22T10:29:36;94382.30;;;14.99;37.25
49915;BME280;35806;47.958;13.158;2023-02-22T10:32:14;94376.47;;;15.75;36.99
49915;BME280;35806;47.958;13.158;2023-02-22T10:34:47;94381.28;;;15.39;36.18
49915;BME280;35806;47.958;13.158;2023-02-22T10:37:23;94373.08;;;15.22;36.91
49915;BME280;35806;47.958;13.158;2023-02-22T10:39:54;94371.52;;;15.24;36.74
49915;BME280;35806;47.958;13.158;2023-02-22T10:42:25;94371.40;;;15.37;36.10
49915;BME280;35806;47.958;13.158;2023-02-22T10:44:53;94368.46;;;15.44;35.74
49915;BME280;35806;47.958;13.158;2023-02-22T10:47:21;94363.91;;;15.96;35.76
49915;BME280;35806;47.958;13.158;2023-02-22T10:49:50;94361.78;;;16.46;34.49
49915;BME280;35806;47.958;13.158;2023-02-22T10:52:24;94361.75;;;17.06;34.06
49915;BME280;35806;47.958;13.158;2023-02-22T10:54:54;94356.61;;;15.81;34.07
49915;BME280;35806;47.958;13.158;2023-02-22T10:57:26;94356.29;;;16.07;35.23
49915;BME280;35806;47.958;13.158;2023-02-22T10:59:55;94355.73;;;16.43;34.44
49915;BME280;35806;47.958;13.158;2023-02-22T11:02:26;94352.82;;;15.50;35.51
49915;BME280;35806;47.958;13.158;2023-02-22T11:04:56;94351.78;;;15.47;35.47
49915;BME280;35806;47.958;13.158;2023-02-22T11:07:25;94349.92;;;15.52;35.58
49915;BME280;35806;47.958;13.158;2023-02-22T11:09:55;94347.23;;;15.48;36.13
49915;BME280;35806;47.958;13.158;2023-02-22T11:12:29;94341.18;;;14.68;36.89
49915;BME280;35806;47.958;13.158;2023-02-22T11:14:57;94338.69;;;15.26;36.86
49915;BME280;35806;47.958;13.158;2023-02-22T11:17:46;94337.94;;;15.59;36.04
49915;BME280;35806;47.958;13.158;2023-02-22T11:20:23;94333.75;;;16.71;35.36
49915;BME280;35806;47.958;13.158;2023-02-22T11:22:51;94331.17;;;16.84;35.61
49915;BME280;35806;47.958;13.158;2023-02-22T11:25:23;94326.97;;;16.52;34.11
49915;BME280;35806;47.958;13.158;2023-02-22T11:27:51;94326.06;;;17.21;33.26
49915;BME280;35806;47.958;13.158;2023-02-22T11:30:26;94325.17;;;17.20;33.04
49915;BME280;35806;47.958;13.158;2023-02-22T11:32:57;94320.95;;;17.11;32.77
49915;BME280;35806;47.958;13.158;2023-02-22T11:35:38;94317.41;;;17.24;33.05
49915;BME280;35806;47.958;13.158;2023-02-22T11:38:17;94310.64;;;16.56;33.82
49915;BME280;35806;47.958;13.158;2023-02-22T11:40:45;94309.87;;;17.02;33.82
49915;BME280;35806;47.958;13.158;2023-02-22T11:43:16;94302.78;;;16.70;33.10
49915;BME280;35806;47.958;13.158;2023-02-22T11:45:58;94302.53;;;16.56;33.31
49915;BME280;35806;47.958;13.158;2023-02-22T11:48:29;94301.14;;;17.24;32.33
49915;BME280;35806;47.958;13.158;2023-02-22T11:51:11;94297.92;;;17.85;32.44
49915;BME280;35806;47.958;13.158;2023-02-22T11:54:01;94294.46;;;17.35;32.24
49915;BME280;35806;47.958;13.158;2023-02-22T11:56:35;94289.51;;;17.37;32.56
49915;BME280;35806;47.958;13.158;2023-02-22T11:59:14;94288.01;;;17.70;31.85
49915;BME280;35806;47.958;13.158;2023-02-22T12:01:50;94286.02;;;17.62;32.87
49915;BME280;35806;47.958;13.158;2023-02-22T12:04:54;94283.29;;;17.95;31.45
49915;BME280;35806;47.958;13.158;2023-02-22T12:07:35;94281.35;;;17.97;31.79
49915;BME280;35806;47.958;13.158;2023-02-22T12:10:14;94283.25;;;17.75;31.44
49915;BME280;35806;47.958;13.158;2023-02-22T12:12:56;94282.76;;;17.84;31.83
49915;BME280;35806;47.958;13.158;2023-02-22T12:15:30;94281.28;;;18.10;31.98
49915;BME280;35806;47.958;13.158;2023-02-22T12:18:10;94273.99;;;18.17;31.00
49915;BME280;35806;47.958;13.158;2023-02-22T12:20:45;94270.70;;;18.08;30.38
49915;BME280;35806;47.958;13.158;2023-02-22T12:23:17;94263.09;;;18.20;31.17
49915;BME280;35806;47.958;13.158;2023-02-22T12:25:54;94269.38;;;18.65;31.01
49915;BME280;35806;47.958;13.158;2023-02-22T12:28:30;94264.65;;;18.98;30.40
49915;BME280;35806;47.958;13.158;2023-02-22T12:31:09;94266.85;;;18.75;30.28
49915;BME280;35806;47.958;13.158;2023-02-22T12:33:48;94263.82;;;18.51;30.97
49915;BME280;35806;47.958;13.158;2023-02-22T12:36:20;94256.63;;;18.79;30.64
49915;BME280;35806;47.958;13.158;2023-02-22T12:38:56;94255.50;;;19.49;30.06
49915;BME280;35806;47.958;13.158;2023-02-22T12:41:30;94252.83;;;19.24;29.96
49915;BME280;35806;47.958;13.158;2023-02-22T12:44:05;94252.00;;;19.46;30.54
49915;BME280;35806;47.958;13.158;2023-02-22T12:46:38;94249.04;;;19.29;30.18
49915;BME280;35806;47.958;13.158;2023-02-22T12:49:13;94253.11;;;18.43;31.14
49915;BME280;35806;47.958;13.158;2023-02-22T12:51:44;94245.54;;;17.81;32.10
49915;BME280;35806;47.958;13.158;2023-02-22T12:54:21;94242.88;;;17.59;32.28
49915;BME280;35806;47.958;13.158;2023-02-22T12:56:54;94237.61;;;17.72;31.93
49915;BME280;35806;47.958;13.158;2023-02-22T12:59:30;94236.05;;;17.98;31.54
49915;BME280;35806;47.958;13.158;2023-02-22T13:02:07;94233.76;;;18.11;31.54
49915;BME280;35806;47.958;13.158;2023-02-22T13:04:38;94231.61;;;18.07;31.57
49915;BME280;35806;47.958;13.158;2023-02-22T13:07:15;94233.98;;;18.51;31.22
49915;BME280;35806;47.958;13.158;2023-02-22T13:10:34;94227.29;;;17.80;31.66
49915;BME280;35806;47.958;13.158;2023-02-22T13:13:13;94223.31;;;18.06;32.05
49915;BME280;35806;47.958;13.158;2023-02-22T13:15:49;94219.61;;;18.70;31.89
49915;BME280;35806;47.958;13.158;2023-02-22T13:18:25;94215.64;;;17.51;32.14
49915;BME280;35806;47.958;13.158;2023-02-22T13:20:59;94213.35;;;16.73;33.74
49915;BME280;35806;47.958;13.158;2023-02-22T13:23:36;94212.54;;;17.26;33.56
49915;BME280;35806;47.958;13.158;2023-02-22T13:26:11;94206.48;;;17.42;33.26
49915;BME280;35806;47.958;13.158;2023-02-22T13:28:43;94210.04;;;17.50;33.25
49915;BME280;35806;47.958;13.158;2023-02-22T13:31:41;94207.51;;;17.28;32.72